Time;durP1;ratioP1;P1;durP2;ratioP2;P2;SDS_P1;SDS_P2;PMS_P1;PMS_P2;Temp;Humidity;BMP_temperature;BMP_pressure;BME280_temperature;BME280_humidity;BME280_pressure;Samples;Min_cycle;Max_cycle;Signal;HPM_P1;HPM_P2
2021/01/09 00:01:40;;;;;;;90.73;50.90;;;0.60;92.40;;;;;;4978925;28;20260;-80
2021/01/09 00:04:07;;;;;;;93.67;50.83;;;0.60;92.60;;;;;;4953431;28;20216;-79
2021/01/09 00:06:36;;;;;;;92.43;49.37;;;0.70;92.60;;;;;;4952688;28;20200;-81
2021/01/09 00:09:05;;;;;;;88.87;50.27;;;0.60;92.50;;;;;;4961910;28;20201;-80
2021/01/09 00:11:33;;;;;;;90.07;49.30;;;0.60;92.50;;;;;;4963775;28;20212;-80
2021/01/09 00:14:02;;;;;;;93.37;51.03;;;0.70;92.50;;;;;;4978840;28;20915;-80
2021/01/09 00:16:30;;;;;;;87.13;48.83;;;0.80;92.50;;;;;;4952352;28;20208;-80
2021/01/09 00:18:58;;;;;;;82.13;47.40;;;0.70;92.40;;;;;;4951370;28;20295;-81
2021/01/09 00:21:34;;;;;;;90.90;49.40;;;0.70;92.40;;;;;;4960427;28;20200;-79
2021/01/09 00:24:04;;;;;;;94.77;51.07;;;0.60;92.40;;;;;;4948573;28;20201;-81
2021/01/09 00:26:32;;;;;;;96.37;51.73;;;0.70;92.40;;;;;;4957535;28;20215;-82
2021/01/09 00:28:59;;;;;;;88.43;48.60;;;0.70;92.40;;;;;;4956179;28;20253;-81
2021/01/09 00:31:28;;;;;;;87.90;48.60;;;0.70;92.40;;;;;;4947723;28;20845;-81
2021/01/09 00:33:56;;;;;;;88.90;49.83;;;0.70;92.40;;;;;;4959021;28;20340;-81
2021/01/09 00:36:23;;;;;;;90.23;49.60;;;0.60;92.40;;;;;;4953518;28;20219;-79
2021/01/09 00:38:51;;;;;;;91.03;50.00;;;0.60;92.40;;;;;;4950777;28;20205;-81
2021/01/09 00:41:26;;;;;;;94.00;48.67;;;0.60;92.50;;;;;;4960127;28;20196;-80
2021/01/09 00:43:54;;;;;;;94.47;51.13;;;0.60;92.50;;;;;;4944739;28;20208;-80
2021/01/09 00:46:22;;;;;;;92.80;50.43;;;0.60;92.50;;;;;;4968318;28;20238;-80
2021/01/09 00:48:50;;;;;;;95.97;52.23;;;0.60;92.50;;;;;;4959233;28;20196;-81
2021/01/09 00:51:19;;;;;;;95.83;50.90;;;0.60;92.50;;;;;;4979329;28;20258;-81
2021/01/09 00:53:46;;;;;;;92.50;51.63;;;0.60;92.50;;;;;;4962662;28;20276;-81
2021/01/09 00:56:14;;;;;;;88.10;50.33;;;0.50;92.50;;;;;;4950802;28;20221;-81
2021/01/09 00:58:42;;;;;;;85.03;50.27;;;0.50;92.50;;;;;;4961970;28;20260;-82
2021/01/09 01:01:10;;;;;;;94.43;51.77;;;0.50;92.50;;;;;;4957044;28;20197;-80
2021/01/09 01:03:39;;;;;;;97.17;52.03;;;0.60;92.70;;;;;;4946334;28;20208;-82
2021/01/09 01:06:08;;;;;;;103.17;53.53;;;0.70;92.70;;;;;;4955367;28;21123;-81
2021/01/09 01:08:36;;;;;;;100.23;53.53;;;0.70;92.70;;;;;;4947860;28;20630;-81
2021/01/09 01:11:05;;;;;;;95.97;51.43;;;0.70;92.60;;;;;;4950733;28;20392;-80
2021/01/09 01:13:33;;;;;;;91.83;52.63;;;0.70;92.50;;;;;;4967329;28;20267;-80
2021/01/09 01:16:00;;;;;;;95.90;51.13;;;0.80;92.50;;;;;;4952617;28;20206;-80
2021/01/09 01:18:30;;;;;;;90.37;51.63;;;0.80;92.50;;;;;;4955459;28;20223;-81
2021/01/09 01:20:57;;;;;;;92.67;50.63;;;0.60;92.40;;;;;;4962948;28;20204;-82
2021/01/09 01:23:25;;;;;;;99.57;53.77;;;0.70;92.50;;;;;;4970660;28;20212;-79
2021/01/09 01:25:53;;;;;;;99.33;54.10;;;0.70;92.50;;;;;;4973690;28;20209;-81
2021/01/09 01:28:20;;;;;;;105.87;54.50;;;0.70;92.50;;;;;;4956928;28;20204;-81
2021/01/09 01:30:50;;;;;;;92.43;53.63;;;0.70;92.50;;;;;;4942826;28;20269;-81
2021/01/09 01:33:18;;;;;;;99.67;52.70;;;0.70;92.50;;;;;;4951694;28;20256;-81
2021/01/09 01:35:47;;;;;;;102.50;55.67;;;0.60;92.50;;;;;;4950274;28;20208;-82
2021/01/09 01:38:15;;;;;;;105.30;56.77;;;0.70;92.60;;;;;;4944788;28;20219;-81
2021/01/09 01:40:43;;;;;;;102.63;58.70;;;0.70;92.50;;;;;;4958073;28;20560;-80
2021/01/09 01:43:11;;;;;;;107.47;57.80;;;0.80;92.60;;;;;;4953817;28;20197;-81
2021/01/09 01:45:40;;;;;;;112.63;58.33;;;0.80;92.60;;;;;;4945919;28;20217;-79
2021/01/09 01:48:09;;;;;;;109.77;57.93;;;0.80;92.50;;;;;;4959056;28;20203;-79
2021/01/09 01:50:38;;;;;;;112.17;59.07;;;0.80;92.40;;;;;;4945308;28;20507;-80
2021/01/09 01:53:07;;;;;;;107.40;56.20;;;0.80;92.40;;;;;;4959734;28;20212;-79
2021/01/09 01:55:35;;;;;;;112.77;59.40;;;0.70;92.40;;;;;;4956715;28;21066;-81
2021/01/09 01:58:04;;;;;;;106.73;57.63;;;0.70;92.50;;;;;;4942476;28;20573;-79
2021/01/09 02:00:32;;;;;;;110.87;55.80;;;0.70;92.50;;;;;;4957991;28;20201;-80
2021/01/09 02:03:00;;;;;;;113.87;58.73;;;0.70;92.50;;;;;;4948745;28;20750;-79
2021/01/09 02:05:35;;;;;;;110.83;57.73;;;0.70;92.50;;;;;;4946977;28;20217;-79
2021/01/09 02:08:08;;;;;;;112.20;56.90;;;0.60;92.50;;;;;;4955248;28;20501;-80
2021/01/09 02:10:36;;;;;;;114.00;57.23;;;0.60;92.50;;;;;;4940086;28;20233;-80
2021/01/09 02:13:11;;;;;;;117.37;58.47;;;0.50;92.50;;;;;;4947359;28;20401;-80
2021/01/09 02:15:40;;;;;;;110.37;57.20;;;0.50;92.60;;;;;;4945609;28;20206;-83
2021/01/09 02:18:08;;;;;;;115.03;58.50;;;0.50;92.70;;;;;;4945090;28;20210;-81
2021/01/09 02:20:38;;;;;;;112.60;58.87;;;0.50;92.70;;;;;;4953562;28;20521;-81
2021/01/09 02:23:07;;;;;;;108.03;58.40;;;0.50;92.80;;;;;;4950640;28;20476;-81
2021/01/09 02:25:35;;;;;;;113.90;57.33;;;0.50;92.80;;;;;;4948674;28;20300;-80
2021/01/09 02:28:02;;;;;;;112.60;58.80;;;0.40;92.70;;;;;;4978208;28;20192;-80
2021/01/09 02:30:33;;;;;;;116.07;56.80;;;0.40;92.70;;;;;;4959912;28;20236;-81
2021/01/09 02:33:03;;;;;;;112.67;56.43;;;0.30;92.70;;;;;;4949194;28;20204;-82
2021/01/09 02:35:34;;;;;;;113.57;57.90;;;0.30;92.80;;;;;;4956543;28;20205;-82
2021/01/09 02:38:03;;;;;;;120.10;59.00;;;0.40;92.90;;;;;;4946110;28;20209;-80
2021/01/09 02:40:39;;;;;;;112.97;57.17;;;0.60;93.00;;;;;;4964174;28;20201;-80
2021/01/09 02:43:10;;;;;;;118.10;57.53;;;0.50;93.00;;;;;;4955597;28;20197;-80
2021/01/09 02:45:38;;;;;;;112.57;55.17;;;0.50;93.00;;;;;;4949774;28;20212;-81
2021/01/09 02:48:07;;;;;;;111.83;57.27;;;0.60;93.00;;;;;;4964767;28;20189;-80
2021/01/09 02:50:35;;;;;;;105.53;55.37;;;0.70;93.00;;;;;;4964707;28;20265;-80
2021/01/09 02:53:03;;;;;;;107.00;56.77;;;0.70;92.90;;;;;;4980260;28;20524;-81
2021/01/09 02:55:30;;;;;;;106.73;56.43;;;0.70;92.80;;;;;;4962741;28;20209;-81
2021/01/09 02:57:58;;;;;;;111.13;55.67;;;0.70;92.80;;;;;;4941920;28;20656;-80
2021/01/09 03:00:26;;;;;;;104.50;54.37;;;0.70;92.80;;;;;;4959204;28;20204;-81
2021/01/09 03:02:54;;;;;;;104.60;55.60;;;0.70;92.70;;;;;;4952043;28;20264;-81
2021/01/09 03:05:22;;;;;;;103.17;54.73;;;0.70;92.70;;;;;;4948328;28;20249;-81
2021/01/09 03:07:49;;;;;;;106.93;56.57;;;0.70;92.70;;;;;;4957722;28;20243;-79
2021/01/09 03:10:17;;;;;;;100.03;55.33;;;0.80;92.80;;;;;;4954818;28;20347;-81
2021/01/09 03:12:45;;;;;;;101.23;56.33;;;0.70;92.70;;;;;;4948876;28;20761;-81
2021/01/09 03:15:14;;;;;;;103.37;54.90;;;0.70;92.70;;;;;;4960734;28;20208;-81
2021/01/09 03:17:41;;;;;;;99.67;55.07;;;0.70;92.60;;;;;;4953513;28;20215;-81
2021/01/09 03:20:09;;;;;;;104.97;54.93;;;0.90;92.70;;;;;;4955190;28;20519;-80
2021/01/09 03:22:37;;;;;;;105.27;54.70;;;0.80;92.70;;;;;;4961907;28;20469;-80
2021/01/09 03:25:06;;;;;;;109.97;56.63;;;0.80;92.60;;;;;;4948570;28;20711;-81
2021/01/09 03:27:33;;;;;;;107.70;55.97;;;0.80;92.60;;;;;;4959432;28;20228;-82
2021/01/09 03:30:01;;;;;;;104.60;55.87;;;0.80;92.60;;;;;;4952489;28;20233;-80
2021/01/09 03:32:29;;;;;;;102.40;55.23;;;0.80;92.60;;;;;;4959153;28;20299;-80
2021/01/09 03:34:57;;;;;;;97.57;55.10;;;0.80;92.60;;;;;;4962040;28;20196;-79
2021/01/09 03:37:24;;;;;;;97.60;54.13;;;0.80;92.50;;;;;;4968688;28;20242;-81
2021/01/09 03:39:52;;;;;;;105.87;56.47;;;0.80;92.50;;;;;;4963900;28;20200;-81
2021/01/09 03:42:19;;;;;;;102.00;56.23;;;0.80;92.60;;;;;;4975231;28;20240;-79
2021/01/09 03:44:47;;;;;;;99.93;53.63;;;0.80;92.50;;;;;;4975109;28;20221;-79
2021/01/09 03:47:14;;;;;;;107.83;54.40;;;0.80;92.60;;;;;;4976169;28;20305;-81
2021/01/09 03:49:43;;;;;;;95.37;53.03;;;0.80;92.50;;;;;;4978439;28;20273;-80
2021/01/09 03:52:10;;;;;;;95.17;52.57;;;0.70;92.50;;;;;;4971700;28;20641;-79
2021/01/09 03:54:39;;;;;;;99.10;53.67;;;0.80;92.60;;;;;;4964241;28;20559;-82
2021/01/09 03:57:06;;;;;;;101.03;55.27;;;0.80;92.60;;;;;;4978530;28;20381;-79
2021/01/09 03:59:34;;;;;;;93.47;53.20;;;0.80;92.60;;;;;;4974372;28;20431;-78
2021/01/09 04:02:02;;;;;;;101.93;53.37;;;0.90;92.60;;;;;;4981694;28;20279;-82
2021/01/09 04:04:30;;;;;;;93.40;52.83;;;0.90;92.50;;;;;;4980962;28;20197;-80
2021/01/09 04:06:59;;;;;;;94.27;52.63;;;0.90;92.50;;;;;;4979458;28;20193;-81
2021/01/09 04:09:27;;;;;;;93.20;51.57;;;0.90;92.50;;;;;;4981016;28;20197;-80
2021/01/09 04:11:54;;;;;;;96.37;51.13;;;0.90;92.50;;;;;;4975905;28;20243;-80
2021/01/09 04:14:22;;;;;;;95.53;50.73;;;0.90;92.40;;;;;;4981544;28;20572;-81
2021/01/09 04:16:49;;;;;;;93.83;50.03;;;0.90;92.30;;;;;;4982084;28;20366;-80
2021/01/09 04:19:17;;;;;;;95.23;51.30;;;0.90;92.30;;;;;;4978419;28;20192;-79
2021/01/09 04:21:45;;;;;;;87.67;50.87;;;0.90;92.30;;;;;;4987134;28;20284;-80
2021/01/09 04:24:13;;;;;;;89.67;49.03;;;0.90;92.30;;;;;;4978993;28;20369;-82
2021/01/09 04:26:41;;;;;;;93.43;50.37;;;0.90;92.30;;;;;;4976999;28;20191;-81
2021/01/09 04:29:08;;;;;;;93.90;49.47;;;0.80;92.30;;;;;;4981230;28;20228;-81
2021/01/09 04:31:37;;;;;;;92.27;50.27;;;0.80;92.30;;;;;;4971291;28;20300;-81
2021/01/09 04:34:04;;;;;;;92.40;49.93;;;0.80;92.30;;;;;;4976934;28;20286;-80
2021/01/09 04:36:32;;;;;;;97.67;51.83;;;0.80;92.30;;;;;;4966253;28;20359;-81
2021/01/09 04:39:00;;;;;;;90.37;49.33;;;0.80;92.40;;;;;;4967918;28;20280;-82
2021/01/09 04:41:30;;;;;;;90.77;48.87;;;0.80;92.30;;;;;;4977124;28;20240;-81
2021/01/09 04:43:57;;;;;;;91.97;49.50;;;0.90;92.40;;;;;;4972000;28;20525;-81
2021/01/09 04:46:26;;;;;;;88.43;47.47;;;0.80;92.30;;;;;;4974044;28;20197;-80
2021/01/09 04:48:54;;;;;;;89.20;50.10;;;0.80;92.30;;;;;;4985064;28;20192;-79
2021/01/09 04:51:24;;;;;;;88.43;48.50;;;0.90;92.30;;;;;;4984311;28;20216;-80
2021/01/09 04:53:54;;;;;;;87.47;48.10;;;0.90;92.30;;;;;;4984726;28;20205;-81
2021/01/09 04:56:23;;;;;;;88.50;48.13;;;0.90;92.30;;;;;;4983391;28;20201;-81
2021/01/09 04:58:55;;;;;;;86.67;48.30;;;0.80;92.20;;;;;;4974819;28;20426;-82
2021/01/09 05:01:22;;;;;;;86.80;49.00;;;0.80;92.20;;;;;;4983804;28;20351;-79
2021/01/09 05:03:50;;;;;;;88.17;46.53;;;0.80;92.20;;;;;;4976879;28;20209;-81
2021/01/09 05:06:20;;;;;;;91.23;50.97;;;0.80;92.20;;;;;;4975997;28;20209;-80
2021/01/09 05:08:48;;;;;;;92.27;50.37;;;0.80;92.20;;;;;;4980744;28;20208;-81
2021/01/09 05:11:16;;;;;;;95.17;50.73;;;0.80;92.30;;;;;;4960955;28;20232;-80
2021/01/09 05:13:45;;;;;;;87.37;47.67;;;0.70;92.20;;;;;;4974537;28;20505;-80
2021/01/09 05:16:14;;;;;;;94.20;50.97;;;0.70;92.30;;;;;;4977778;28;20265;-81
2021/01/09 05:18:42;;;;;;;87.37;48.60;;;0.70;92.30;;;;;;4976658;28;20211;-81
2021/01/09 05:21:11;;;;;;;93.07;50.23;;;0.80;92.40;;;;;;4975768;28;20197;-79
2021/01/09 05:23:52;;;;;;;91.73;48.23;;;0.70;92.50;;;;;;4972329;28;20303;-80
2021/01/09 05:26:21;;;;;;;91.67;49.37;;;0.80;92.60;;;;;;4966863;28;20195;-80
2021/01/09 05:28:50;;;;;;;91.70;49.57;;;0.80;92.60;;;;;;4979059;28;20223;-81
2021/01/09 05:31:19;;;;;;;96.03;49.90;;;0.80;92.50;;;;;;4968456;28;20209;-80
2021/01/09 05:33:48;;;;;;;92.00;49.77;;;0.80;92.50;;;;;;4982947;28;20199;-81
2021/01/09 05:36:16;;;;;;;90.67;51.03;;;0.80;92.50;;;;;;4981327;28;20272;-79
2021/01/09 05:38:45;;;;;;;89.30;49.17;;;0.80;92.40;;;;;;4976529;28;20257;-81
2021/01/09 05:41:13;;;;;;;94.63;49.67;;;0.80;92.40;;;;;;4975336;28;20454;-80
2021/01/09 05:43:41;;;;;;;91.43;48.97;;;0.80;92.40;;;;;;4975601;28;20204;-81
2021/01/09 05:46:09;;;;;;;91.33;49.73;;;0.80;92.40;;;;;;4971377;28;20250;-82
2021/01/09 05:48:40;;;;;;;90.23;48.40;;;0.80;92.40;;;;;;4979429;28;20206;-81
2021/01/09 05:51:12;;;;;;;94.53;49.63;;;0.80;92.40;;;;;;4957481;28;20260;-82
2021/01/09 05:53:42;;;;;;;95.73;50.23;;;0.80;92.50;;;;;;4955810;28;20201;-80
2021/01/09 05:56:11;;;;;;;101.03;55.10;;;0.80;92.50;;;;;;4952051;28;20494;-81
2021/01/09 05:58:39;;;;;;;104.47;56.70;;;0.80;92.50;;;;;;4952196;28;20898;-81
2021/01/09 06:01:09;;;;;;;102.67;55.83;;;0.80;92.50;;;;;;4964590;28;20255;-82
2021/01/09 06:03:40;;;;;;;110.50;55.57;;;0.90;92.60;;;;;;4952475;28;20200;-78
2021/01/09 06:06:24;;;;;;;94.70;52.07;;;0.90;92.60;;;;;;4953216;28;20781;-82
2021/01/09 06:08:57;;;;;;;94.73;51.37;;;0.90;92.50;;;;;;4948739;28;20280;-81
2021/01/09 06:11:36;;;;;;;93.63;52.03;;;0.90;92.50;;;;;;4954898;28;20507;-80
2021/01/09 06:14:05;;;;;;;102.23;50.80;;;0.90;92.50;;;;;;4954081;28;20506;-81
2021/01/09 06:16:35;;;;;;;98.60;52.43;;;0.90;92.60;;;;;;4959746;28;20231;-80
2021/01/09 06:19:04;;;;;;;96.23;51.57;;;0.90;92.60;;;;;;4969893;28;20193;-81
2021/01/09 06:21:33;;;;;;;95.13;52.40;;;0.90;92.60;;;;;;4955597;28;20328;-81
2021/01/09 06:24:03;;;;;;;103.07;51.30;;;0.90;92.60;;;;;;4963762;28;20200;-82
2021/01/09 06:26:31;;;;;;;108.17;52.40;;;0.90;92.60;;;;;;4956410;28;20197;-80
2021/01/09 06:29:00;;;;;;;99.73;52.27;;;0.90;92.60;;;;;;4958074;28;20287;-80
2021/01/09 06:31:29;;;;;;;103.13;52.33;;;0.90;92.70;;;;;;4959131;28;21157;-82
2021/01/09 06:34:01;;;;;;;95.30;51.13;;;0.90;92.70;;;;;;4958499;28;20508;-80
2021/01/09 06:36:33;;;;;;;100.57;51.53;;;0.90;92.60;;;;;;4956565;28;20991;-80
2021/01/09 06:39:03;;;;;;;104.57;53.90;;;0.90;92.70;;;;;;4957831;28;20295;-81
2021/01/09 06:41:33;;;;;;;109.43;53.57;;;1.00;92.70;;;;;;4954553;28;20201;-80
2021/01/09 06:44:06;;;;;;;97.00;51.03;;;1.00;92.60;;;;;;4957998;28;20197;-81
2021/01/09 06:46:35;;;;;;;97.57;52.27;;;0.90;92.50;;;;;;4947716;28;20655;-81
2021/01/09 06:49:04;;;;;;;111.30;54.60;;;1.00;92.60;;;;;;4957284;28;20201;-80
2021/01/09 06:51:43;;;;;;;100.23;52.47;;;1.00;92.60;;;;;;4965915;28;20227;-80
2021/01/09 06:54:42;;;;;;;104.17;52.43;;;1.00;92.60;;;;;;4960064;28;20207;-81
2021/01/09 06:57:11;;;;;;;97.17;52.00;;;1.10;92.60;;;;;;4948196;28;20207;-81
2021/01/09 06:59:39;;;;;;;105.37;53.87;;;1.10;92.60;;;;;;4960882;28;20463;-80
2021/01/09 07:02:24;;;;;;;100.10;52.23;;;1.10;92.50;;;;;;4959708;28;20858;-80
2021/01/09 07:05:04;;;;;;;109.23;52.90;;;1.10;92.60;;;;;;4956914;28;20213;-80
2021/01/09 07:07:37;;;;;;;108.80;53.73;;;1.10;92.50;;;;;;4958868;28;20236;-80
2021/01/09 07:10:12;;;;;;;118.40;55.27;;;1.10;92.50;;;;;;4978368;28;20408;-81
2021/01/09 07:12:41;;;;;;;112.27;56.13;;;1.10;92.50;;;;;;4970472;28;20196;-81
2021/01/09 07:15:10;;;;;;;109.57;55.47;;;1.10;92.50;;;;;;4982529;28;20419;-79
2021/01/09 07:17:41;;;;;;;108.40;53.00;;;1.00;92.50;;;;;;4959866;28;20197;-81
2021/01/09 07:20:12;;;;;;;114.93;57.03;;;1.10;92.60;;;;;;4962006;28;20280;-81
2021/01/09 07:22:42;;;;;;;108.03;55.63;;;1.10;92.60;;;;;;4955421;28;20490;-81
2021/01/09 07:25:10;;;;;;;120.47;55.27;;;1.20;92.60;;;;;;4966515;28;20196;-81
2021/01/09 07:27:44;;;;;;;113.07;56.13;;;1.10;92.50;;;;;;4958308;28;20208;-79
2021/01/09 07:30:15;;;;;;;112.97;55.80;;;1.20;92.50;;;;;;4968093;28;20267;-82
2021/01/09 07:32:52;;;;;;;113.73;55.07;;;1.20;92.40;;;;;;4947724;28;20567;-82
2021/01/09 07:35:25;;;;;;;112.40;55.67;;;1.20;92.40;;;;;;4960339;28;20614;-82
2021/01/09 07:37:56;;;;;;;118.13;57.60;;;1.10;92.40;;;;;;4962467;28;20276;-79
2021/01/09 07:40:28;;;;;;;106.50;54.73;;;1.20;92.50;;;;;;4962905;28;20379;-79
2021/01/09 07:42:55;;;;;;;109.23;55.07;;;1.10;92.50;;;;;;4956465;28;20929;-80
2021/01/09 07:45:29;;;;;;;113.77;56.60;;;1.10;92.50;;;;;;4957789;28;20344;-83
2021/01/09 07:47:57;;;;;;;109.27;55.60;;;1.10;92.60;;;;;;4953877;28;20228;-80
2021/01/09 07:50:26;;;;;;;108.47;54.30;;;1.10;92.60;;;;;;4959970;28;20193;-79
2021/01/09 07:53:06;;;;;;;113.50;54.63;;;1.20;92.70;;;;;;4963708;28;20201;-79
2021/01/09 07:55:44;;;;;;;107.23;54.67;;;1.20;92.70;;;;;;4944850;28;20213;-80
2021/01/09 07:58:12;;;;;;;109.27;50.87;;;1.20;92.60;;;;;;4966246;28;20328;-80
2021/01/09 08:00:42;;;;;;;110.47;52.63;;;1.20;92.50;;;;;;4954178;28;20587;-80
2021/01/09 08:03:10;;;;;;;108.97;53.77;;;1.30;92.40;;;;;;4958506;28;20560;-80
2021/01/09 08:05:38;;;;;;;110.33;52.77;;;1.20;92.40;;;;;;4958865;28;20557;-81
2021/01/09 08:08:07;;;;;;;104.83;53.13;;;1.20;92.50;;;;;;4952405;28;20401;-80
2021/01/09 08:10:35;;;;;;;104.20;51.43;;;1.30;92.50;;;;;;4956836;28;20227;-78
2021/01/09 08:13:05;;;;;;;105.97;53.57;;;1.20;92.40;;;;;;4969362;28;20673;-80
2021/01/09 08:15:34;;;;;;;112.67;51.77;;;1.30;92.50;;;;;;4965593;28;20486;-80
2021/01/09 08:18:04;;;;;;;111.63;52.83;;;1.30;92.50;;;;;;4981832;28;20308;-81
2021/01/09 08:20:33;;;;;;;108.90;52.90;;;1.30;92.40;;;;;;4958237;28;20209;-79
2021/01/09 08:23:02;;;;;;;108.93;50.57;;;1.30;92.40;;;;;;4943770;28;20207;-80
2021/01/09 08:25:32;;;;;;;110.53;51.57;;;1.30;92.50;;;;;;4962921;28;20208;-81
2021/01/09 08:28:01;;;;;;;103.57;52.50;;;1.20;92.50;;;;;;4950823;28;20236;-81
2021/01/09 08:30:30;;;;;;;104.83;52.10;;;1.30;92.50;;;;;;4957888;28;20243;-82
2021/01/09 08:33:02;;;;;;;107.80;52.37;;;1.20;92.50;;;;;;4954273;28;20247;-81
2021/01/09 08:35:30;;;;;;;110.40;51.53;;;1.30;92.60;;;;;;4963728;28;20224;-81
2021/01/09 08:37:58;;;;;;;105.33;51.67;;;1.30;92.60;;;;;;4981936;28;20191;-81
2021/01/09 08:40:27;;;;;;;106.10;50.27;;;1.30;92.60;;;;;;4964387;28;20232;-81
2021/01/09 08:43:03;;;;;;;116.10;49.80;;;1.30;92.60;;;;;;4969939;28;20220;-79
2021/01/09 08:45:45;;;;;;;102.77;49.07;;;1.30;92.50;;;;;;4953891;28;20201;-80
2021/01/09 08:48:18;;;;;;;110.83;50.37;;;1.30;92.50;;;;;;4944935;28;20217;-81
2021/01/09 08:51:05;;;;;;;108.93;48.30;;;1.30;92.50;;;;;;4959039;28;20364;-81
2021/01/09 08:53:41;;;;;;;100.30;46.27;;;1.30;92.50;;;;;;4953496;28;20519;-82
2021/01/09 08:56:09;;;;;;;103.10;47.97;;;1.30;92.60;;;;;;4950789;28;20291;-81
2021/01/09 08:58:40;;;;;;;97.77;48.07;;;1.30;92.60;;;;;;4954877;28;20209;-81
2021/01/09 09:01:11;;;;;;;103.53;46.83;;;1.50;92.50;;;;;;4945119;28;20197;-80
2021/01/09 09:03:43;;;;;;;94.07;45.50;;;1.40;92.60;;;;;;4952881;28;20213;-82
2021/01/09 09:06:14;;;;;;;92.17;47.13;;;1.40;92.60;;;;;;4951373;28;20774;-81
2021/01/09 09:08:43;;;;;;;90.43;44.90;;;1.40;92.60;;;;;;4948200;28;20310;-81
2021/01/09 09:11:15;;;;;;;96.07;45.97;;;1.40;92.50;;;;;;4959674;28;20777;-79
2021/01/09 09:13:43;;;;;;;94.33;44.50;;;1.50;92.40;;;;;;4969702;28;20193;-82
2021/01/09 09:16:17;;;;;;;90.30;45.87;;;1.40;92.30;;;;;;4976636;28;20201;-81
2021/01/09 09:18:45;;;;;;;98.07;43.87;;;1.50;92.40;;;;;;4959103;28;20283;-81
2021/01/09 09:21:13;;;;;;;93.63;45.00;;;1.50;92.30;;;;;;4945149;28;20305;-81
2021/01/09 09:23:51;;;;;;;85.30;43.90;;;1.50;92.30;;;;;;4962503;28;20211;-81
2021/01/09 09:26:19;;;;;;;96.13;42.30;;;1.40;92.30;;;;;;4951162;28;20358;-81
2021/01/09 09:28:51;;;;;;;87.90;43.63;;;1.40;92.20;;;;;;4954746;28;20230;-79
2021/01/09 09:31:22;;;;;;;89.33;43.33;;;1.40;92.10;;;;;;4964250;28;20229;-80
2021/01/09 09:34:09;;;;;;;88.20;45.30;;;1.40;92.20;;;;;;4971032;28;20452;-81
2021/01/09 09:36:39;;;;;;;86.87;43.57;;;1.50;92.30;;;;;;4972107;28;20184;-81
2021/01/09 09:39:12;;;;;;;99.00;44.30;;;1.50;92.20;;;;;;4979661;28;20536;-82
2021/01/09 09:41:50;;;;;;;98.43;44.67;;;1.50;92.20;;;;;;4963948;28;20210;-81
2021/01/09 09:44:19;;;;;;;93.57;44.57;;;1.50;92.10;;;;;;4968235;28;20201;-81
2021/01/09 09:46:48;;;;;;;93.00;44.47;;;1.50;92.10;;;;;;4979920;28;20240;-81
2021/01/09 09:49:16;;;;;;;94.93;43.90;;;1.50;92.10;;;;;;4973631;28;20219;-81
2021/01/09 09:51:44;;;;;;;95.30;43.37;;;1.50;92.10;;;;;;4991157;28;20211;-80
2021/01/09 09:54:11;;;;;;;95.60;44.57;;;1.50;92.00;;;;;;4965968;28;20263;-81
2021/01/09 09:56:41;;;;;;;99.27;44.33;;;1.50;92.00;;;;;;4955361;28;20480;-82
2021/01/09 09:59:09;;;;;;;88.90;43.23;;;1.60;92.00;;;;;;4957841;28;20200;-80
2021/01/09 10:01:38;;;;;;;95.37;43.80;;;1.50;92.00;;;;;;4951862;28;20698;-81
2021/01/09 10:04:11;;;;;;;99.17;45.03;;;1.60;92.10;;;;;;4976395;28;20189;-81
2021/01/09 10:06:40;;;;;;;95.53;44.10;;;1.50;92.00;;;;;;4963506;28;20264;-80
2021/01/09 10:09:14;;;;;;;95.20;42.37;;;1.30;92.00;;;;;;4964780;28;20197;-82
2021/01/09 10:11:42;;;;;;;92.27;45.40;;;1.50;92.10;;;;;;4963781;28;20225;-81
2021/01/09 10:14:25;;;;;;;100.57;45.07;;;1.50;92.20;;;;;;4951689;28;20219;-81
2021/01/09 10:16:54;;;;;;;98.60;43.90;;;1.60;92.20;;;;;;4951640;28;20267;-81
2021/01/09 10:19:21;;;;;;;101.83;46.20;;;1.70;92.20;;;;;;4954125;28;20291;-81
2021/01/09 10:21:49;;;;;;;101.43;45.23;;;1.70;92.10;;;;;;4946719;28;20398;-79
2021/01/09 10:24:16;;;;;;;95.77;42.60;;;1.70;92.00;;;;;;4970397;28;20231;-80
2021/01/09 10:26:44;;;;;;;98.90;43.53;;;1.90;91.80;;;;;;4956850;28;20208;-80
2021/01/09 10:29:15;;;;;;;92.13;43.70;;;1.80;91.80;;;;;;4952287;28;20630;-81
2021/01/09 10:31:43;;;;;;;99.40;43.10;;;1.80;91.80;;;;;;4961928;28;20278;-82
2021/01/09 10:34:12;;;;;;;86.70;39.93;;;1.90;91.80;;;;;;4951817;28;20208;-81
2021/01/09 10:36:40;;;;;;;86.57;40.80;;;1.90;91.50;;;;;;4949303;28;20434;-81
2021/01/09 10:39:08;;;;;;;83.90;40.33;;;1.90;91.20;;;;;;4960804;28;20209;-81
2021/01/09 10:41:36;;;;;;;81.63;38.00;;;1.90;91.40;;;;;;4945934;28;20330;-82
2021/01/09 10:44:05;;;;;;;87.67;38.47;;;1.90;91.30;;;;;;4957746;28;20251;-82
2021/01/09 10:46:33;;;;;;;86.67;38.07;;;1.90;91.20;;;;;;4963107;28;20205;-81
2021/01/09 10:49:01;;;;;;;76.37;36.40;;;1.90;91.20;;;;;;4951747;28;20647;-80
2021/01/09 10:51:30;;;;;;;82.07;35.97;;;2.00;91.20;;;;;;4979704;28;20220;-79
2021/01/09 10:54:01;;;;;;;80.13;37.43;;;1.90;91.00;;;;;;4963943;28;20515;-81
2021/01/09 10:56:29;;;;;;;76.23;35.87;;;1.90;91.10;;;;;;4952589;28;20292;-81
2021/01/09 10:58:56;;;;;;;77.10;36.17;;;1.90;91.20;;;;;;4961589;28;20197;-82
2021/01/09 11:01:25;;;;;;;78.93;34.37;;;1.90;91.00;;;;;;4948339;28;20221;-79
2021/01/09 11:03:52;;;;;;;77.77;35.03;;;1.90;91.20;;;;;;4962586;28;20264;-81
2021/01/09 11:06:21;;;;;;;78.17;35.00;;;1.90;91.10;;;;;;4960725;28;20754;-81
2021/01/09 11:08:50;;;;;;;78.97;35.53;;;2.00;91.20;;;;;;4954751;28;20576;-81
2021/01/09 11:11:19;;;;;;;77.37;34.67;;;2.10;91.30;;;;;;4961900;28;20323;-81
2021/01/09 11:13:47;;;;;;;73.73;34.87;;;2.10;91.20;;;;;;4949209;28;20226;-83
2021/01/09 11:16:18;;;;;;;79.07;36.67;;;2.20;91.10;;;;;;4958708;28;20240;-80
2021/01/09 11:18:47;;;;;;;87.87;36.90;;;2.20;90.90;;;;;;4956634;28;20555;-82
2021/01/09 11:21:15;;;;;;;75.87;35.20;;;2.10;91.00;;;;;;4955552;28;20466;-80
2021/01/09 11:23:43;;;;;;;79.60;35.93;;;2.10;91.10;;;;;;4966745;28;20936;-83
2021/01/09 11:26:11;;;;;;;79.20;35.67;;;2.10;91.00;;;;;;4959324;28;20213;-82
2021/01/09 11:28:39;;;;;;;79.30;36.93;;;2.10;91.00;;;;;;4958549;28;20300;-83
2021/01/09 11:31:08;;;;;;;81.83;37.67;;;2.00;91.10;;;;;;4975419;28;20189;-81
2021/01/09 11:33:36;;;;;;;78.20;35.57;;;2.00;91.10;;;;;;4972833;28;20271;-82
2021/01/09 11:36:04;;;;;;;81.93;34.23;;;2.00;91.20;;;;;;4970090;28;20623;-79
2021/01/09 11:38:32;;;;;;;83.33;36.10;;;1.90;91.10;;;;;;4964784;28;20406;-80
2021/01/09 11:40:59;;;;;;;81.40;36.47;;;2.00;91.20;;;;;;4952128;28;20340;-80
2021/01/09 11:43:27;;;;;;;78.90;35.53;;;2.00;91.20;;;;;;4958128;28;20209;-81
2021/01/09 11:45:55;;;;;;;80.40;36.23;;;1.90;91.30;;;;;;4954895;28;20210;-81
2021/01/09 11:48:27;;;;;;;89.30;38.10;;;2.10;91.40;;;;;;4950750;28;20368;-78
2021/01/09 11:50:55;;;;;;;87.70;37.20;;;2.00;91.50;;;;;;4963416;28;20718;-79
2021/01/09 11:53:22;;;;;;;90.40;35.97;;;2.00;91.50;;;;;;4953981;28;20232;-81
2021/01/09 11:55:51;;;;;;;86.07;37.00;;;2.00;91.40;;;;;;4963261;28;20272;-83
2021/01/09 11:58:18;;;;;;;78.80;36.83;;;2.00;91.40;;;;;;4958893;28;20205;-81
2021/01/09 12:00:47;;;;;;;76.90;36.27;;;2.00;91.40;;;;;;4951239;28;20315;-81
2021/01/09 12:03:15;;;;;;;85.07;36.77;;;1.90;91.40;;;;;;4954184;28;20567;-83
2021/01/09 12:05:43;;;;;;;82.87;36.70;;;1.90;91.40;;;;;;4956525;28;20293;-83
2021/01/09 12:08:11;;;;;;;88.47;36.87;;;1.90;91.50;;;;;;4960697;28;20205;-81
2021/01/09 12:10:42;;;;;;;85.17;36.60;;;1.90;91.50;;;;;;4967253;28;20712;-81
2021/01/09 12:13:09;;;;;;;81.00;36.70;;;1.90;91.60;;;;;;4957824;28;20391;-80
2021/01/09 12:15:37;;;;;;;82.97;37.57;;;1.90;91.50;;;;;;4950221;28;20237;-81
2021/01/09 12:18:05;;;;;;;82.77;37.23;;;1.90;91.60;;;;;;4962231;28;20197;-80
2021/01/09 12:20:36;;;;;;;76.77;35.80;;;1.90;91.70;;;;;;4953337;28;20300;-81
2021/01/09 12:23:03;;;;;;;83.63;35.67;;;2.10;91.70;;;;;;4953221;28;20601;-81
2021/01/09 12:25:31;;;;;;;79.17;36.07;;;1.90;91.80;;;;;;4952426;28;20205;-82
2021/01/09 12:28:00;;;;;;;80.93;36.33;;;2.00;91.70;;;;;;4947112;28;20582;-81
2021/01/09 12:30:28;;;;;;;81.33;34.27;;;2.00;91.70;;;;;;4960898;28;20217;-80
2021/01/09 12:32:55;;;;;;;79.93;36.67;;;2.00;91.70;;;;;;4949723;28;20224;-83
2021/01/09 12:35:24;;;;;;;83.37;35.30;;;2.00;91.70;;;;;;4950712;28;20912;-79
2021/01/09 12:37:53;;;;;;;80.70;35.67;;;2.00;91.80;;;;;;4957584;28;20248;-82
2021/01/09 12:40:21;;;;;;;83.23;35.70;;;2.00;91.90;;;;;;4955554;28;20205;-80
2021/01/09 12:42:49;;;;;;;73.63;33.43;;;2.00;91.90;;;;;;4956586;28;20196;-83
2021/01/09 12:45:17;;;;;;;75.07;33.70;;;2.00;91.90;;;;;;4953360;28;20464;-81